sensor_id;sensor_type;location;lat;lon;timestamp;temperature;humidity
24326;DHT22;12448;45.532;5.290;2023-06-01T00:03:09;18.20;90.10
24326;DHT22;12448;45.532;5.290;2023-06-01T00:05:56;18.20;90.20
24326;DHT22;12448;45.532;5.290;2023-06-01T00:08:54;18.10;90.30
24326;DHT22;12448;45.532;5.290;2023-06-01T00:12:10;18.10;90.40
24326;DHT22;12448;45.532;5.290;2023-06-01T00:14:59;18.00;90.60
24326;DHT22;12448;45.532;5.290;2023-06-01T00:17:46;18.00;90.60
24326;DHT22;12448;45.532;5.290;2023-06-01T00:20:43;18.00;90.80
24326;DHT22;12448;45.532;5.290;2023-06-01T00:23:24;17.90;90.80
24326;DHT22;12448;45.532;5.290;2023-06-01T00:26:19;18.00;90.80
24326;DHT22;12448;45.532;5.290;2023-06-01T00:29:53;17.90;90.80
24326;DHT22;12448;45.532;5.290;2023-06-01T00:32:17;17.90;90.80
24326;DHT22;12448;45.532;5.290;2023-06-01T00:34:56;17.90;90.70
24326;DHT22;12448;45.532;5.290;2023-06-01T00:37:22;17.90;90.70
24326;DHT22;12448;45.532;5.290;2023-06-01T00:40:17;17.80;90.80
24326;DHT22;12448;45.532;5.290;2023-06-01T00:42:55;17.80;90.90
24326;DHT22;12448;45.532;5.290;2023-06-01T00:45:21;17.80;91.00
24326;DHT22;12448;45.532;5.290;2023-06-01T00:47:56;17.70;91.00
24326;DHT22;12448;45.532;5.290;2023-06-01T00:50:28;17.70;91.00
24326;DHT22;12448;45.532;5.290;2023-06-01T00:53:16;17.70;91.10
24326;DHT22;12448;45.532;5.290;2023-06-01T00:55:46;17.70;91.10
24326;DHT22;12448;45.532;5.290;2023-06-01T00:58:22;17.70;91.00
24326;DHT22;12448;45.532;5.290;2023-06-01T01:00:50;17.70;91.00
24326;DHT22;12448;45.532;5.290;2023-06-01T01:03:27;17.60;91.00
24326;DHT22;12448;45.532;5.290;2023-06-01T01:06:07;17.60;91.10
24326;DHT22;12448;45.532;5.290;2023-06-01T01:09:23;17.70;91.10
24326;DHT22;12448;45.532;5.290;2023-06-01T01:17:44;17.60;91.10
24326;DHT22;12448;45.532;5.290;2023-06-01T01:20:26;17.60;91.10
24326;DHT22;12448;45.532;5.290;2023-06-01T01:33:01;17.60;90.90
24326;DHT22;12448;45.532;5.290;2023-06-01T01:35:43;17.60;90.70
24326;DHT22;12448;45.532;5.290;2023-06-01T01:38:26;17.60;90.70
24326;DHT22;12448;45.532;5.290;2023-06-01T01:41:03;17.60;90.70
24326;DHT22;12448;45.532;5.290;2023-06-01T01:49:48;17.50;90.90
24326;DHT22;12448;45.532;5.290;2023-06-01T01:52:32;17.50;90.90
24326;DHT22;12448;45.532;5.290;2023-06-01T01:55:01;17.50;90.80
24326;DHT22;12448;45.532;5.290;2023-06-01T01:57:32;17.50;90.90
24326;DHT22;12448;45.532;5.290;2023-06-01T02:00:09;17.50;91.00
24326;DHT22;12448;45.532;5.290;2023-06-01T02:02:45;17.40;91.10
24326;DHT22;12448;45.532;5.290;2023-06-01T02:05:13;17.40;91.10
24326;DHT22;12448;45.532;5.290;2023-06-01T02:07:42;17.40;91.10
24326;DHT22;12448;45.532;5.290;2023-06-01T02:10:16;17.40;91.10
24326;DHT22;12448;45.532;5.290;2023-06-01T02:12:50;17.40;91.10
24326;DHT22;12448;45.532;5.290;2023-06-01T02:15:19;17.40;91.00
24326;DHT22;12448;45.532;5.290;2023-06-01T02:17:48;17.30;91.10
24326;DHT22;12448;45.532;5.290;2023-06-01T02:20:14;17.40;91.30
24326;DHT22;12448;45.532;5.290;2023-06-01T02:22:42;17.30;91.30
24326;DHT22;12448;45.532;5.290;2023-06-01T02:25:20;17.30;91.20
24326;DHT22;12448;45.532;5.290;2023-06-01T02:27:46;17.30;91.30
24326;DHT22;12448;45.532;5.290;2023-06-01T02:30:17;17.30;91.20
24326;DHT22;12448;45.532;5.290;2023-06-01T02:32:46;17.30;91.00
24326;DHT22;12448;45.532;5.290;2023-06-01T02:35:14;17.30;90.90
24326;DHT22;12448;45.532;5.290;2023-06-01T02:37:58;17.30;90.90
24326;DHT22;12448;45.532;5.290;2023-06-01T02:40:26;17.30;90.80
24326;DHT22;12448;45.532;5.290;2023-06-01T02:42:57;17.30;90.90
24326;DHT22;12448;45.532;5.290;2023-06-01T02:45:23;17.30;91.00
24326;DHT22;12448;45.532;5.290;2023-06-01T02:47:49;17.20;90.50
24326;DHT22;12448;45.532;5.290;2023-06-01T02:50:17;17.20;90.30
24326;DHT22;12448;45.532;5.290;2023-06-01T02:52:46;17.10;90.20
24326;DHT22;12448;45.532;5.290;2023-06-01T02:55:15;17.10;90.30
24326;DHT22;12448;45.532;5.290;2023-06-01T02:57:41;17.00;90.40
24326;DHT22;12448;45.532;5.290;2023-06-01T03:00:07;17.00;90.60
24326;DHT22;12448;45.532;5.290;2023-06-01T03:02:41;17.00;90.60
24326;DHT22;12448;45.532;5.290;2023-06-01T03:05:08;16.80;90.30
24326;DHT22;12448;45.532;5.290;2023-06-01T03:07:34;16.70;90.50
24326;DHT22;12448;45.532;5.290;2023-06-01T03:10:00;16.70;90.70
24326;DHT22;12448;45.532;5.290;2023-06-01T03:12:26;16.60;90.70
24326;DHT22;12448;45.532;5.290;2023-06-01T03:14:52;16.60;90.80
24326;DHT22;12448;45.532;5.290;2023-06-01T03:17:17;16.50;90.70
24326;DHT22;12448;45.532;5.290;2023-06-01T03:19:49;16.60;90.80
24326;DHT22;12448;45.532;5.290;2023-06-01T03:22:20;16.60;90.80
24326;DHT22;12448;45.532;5.290;2023-06-01T03:27:54;16.70;90.60
24326;DHT22;12448;45.532;5.290;2023-06-01T03:30:20;16.60;90.40
24326;DHT22;12448;45.532;5.290;2023-06-01T03:32:47;16.60;90.50
24326;DHT22;12448;45.532;5.290;2023-06-01T03:35:12;16.50;91.00
24326;DHT22;12448;45.532;5.290;2023-06-01T03:37:41;16.40;90.80
24326;DHT22;12448;45.532;5.290;2023-06-01T03:40:07;16.30;90.90
24326;DHT22;12448;45.532;5.290;2023-06-01T03:42:41;16.30;91.10
24326;DHT22;12448;45.532;5.290;2023-06-01T03:45:08;16.40;91.20
24326;DHT22;12448;45.532;5.290;2023-06-01T03:47:34;16.40;91.30
24326;DHT22;12448;45.532;5.290;2023-06-01T03:50:01;16.50;91.20
24326;DHT22;12448;45.532;5.290;2023-06-01T03:52:28;16.60;91.20
24326;DHT22;12448;45.532;5.290;2023-06-01T04:01:23;16.80;91.40
24326;DHT22;12448;45.532;5.290;2023-06-01T04:03:49;16.80;91.80
24326;DHT22;12448;45.532;5.290;2023-06-01T04:06:15;16.80;91.40
24326;DHT22;12448;45.532;5.290;2023-06-01T04:08:45;16.80;91.20
24326;DHT22;12448;45.532;5.290;2023-06-01T04:11:16;16.80;90.90
24326;DHT22;12448;45.532;5.290;2023-06-01T04:13:42;16.70;90.80
24326;DHT22;12448;45.532;5.290;2023-06-01T04:16:11;16.60;90.80
24326;DHT22;12448;45.532;5.290;2023-06-01T04:18:37;16.60;91.00
24326;DHT22;12448;45.532;5.290;2023-06-01T04:21:03;16.60;91.10
24326;DHT22;12448;45.532;5.290;2023-06-01T04:23:29;16.50;91.10
24326;DHT22;12448;45.532;5.290;2023-06-01T04:25:56;16.50;91.30
24326;DHT22;12448;45.532;5.290;2023-06-01T04:28:27;16.60;91.30
24326;DHT22;12448;45.532;5.290;2023-06-01T04:31:09;16.70;91.30
24326;DHT22;12448;45.532;5.290;2023-06-01T04:33:43;16.80;91.40
24326;DHT22;12448;45.532;5.290;2023-06-01T04:36:21;16.90;91.40
24326;DHT22;12448;45.532;5.290;2023-06-01T04:38:50;16.90;91.60
24326;DHT22;12448;45.532;5.290;2023-06-01T04:41:25;17.00;91.80
24326;DHT22;12448;45.532;5.290;2023-06-01T04:43:52;17.00;91.90
24326;DHT22;12448;45.532;5.290;2023-06-01T04:46:22;17.00;91.90
24326;DHT22;12448;45.532;5.290;2023-06-01T04:48:51;17.00;91.90
24326;DHT22;12448;45.532;5.290;2023-06-01T04:51:20;17.10;92.00
24326;DHT22;12448;45.532;5.290;2023-06-01T04:53:48;17.10;92.00
24326;DHT22;12448;45.532;5.290;2023-06-01T04:56:26;17.10;92.00
24326;DHT22;12448;45.532;5.290;2023-06-01T04:58:54;17.20;92.10
24326;DHT22;12448;45.532;5.290;2023-06-01T05:01:25;17.20;92.10
24326;DHT22;12448;45.532;5.290;2023-06-01T05:03:52;17.20;92.10
24326;DHT22;12448;45.532;5.290;2023-06-01T05:06:20;17.20;92.00
24326;DHT22;12448;45.532;5.290;2023-06-01T05:08:47;17.20;92.00
24326;DHT22;12448;45.532;5.290;2023-06-01T05:11:13;17.20;92.00
24326;DHT22;12448;45.532;5.290;2023-06-01T05:13:40;17.30;92.10
24326;DHT22;12448;45.532;5.290;2023-06-01T05:16:07;17.30;92.10
24326;DHT22;12448;45.532;5.290;2023-06-01T05:18:34;17.30;92.20
24326;DHT22;12448;45.532;5.290;2023-06-01T05:21:03;17.40;92.30
24326;DHT22;12448;45.532;5.290;2023-06-01T05:23:29;17.40;92.30
24326;DHT22;12448;45.532;5.290;2023-06-01T05:28:44;17.50;92.60
24326;DHT22;12448;45.532;5.290;2023-06-01T05:31:10;17.50;92.60
24326;DHT22;12448;45.532;5.290;2023-06-01T05:33:36;17.50;92.60
24326;DHT22;12448;45.532;5.290;2023-06-01T05:36:02;17.60;92.50
24326;DHT22;12448;45.532;5.290;2023-06-01T05:38:28;17.60;92.50
24326;DHT22;12448;45.532;5.290;2023-06-01T05:40:54;17.70;92.50
24326;DHT22;12448;45.532;5.290;2023-06-01T05:43:20;17.80;92.50
24326;DHT22;12448;45.532;5.290;2023-06-01T05:45:45;17.80;92.70
24326;DHT22;12448;45.532;5.290;2023-06-01T05:48:11;17.80;92.30
24326;DHT22;12448;45.532;5.290;2023-06-01T05:50:39;17.80;92.50
24326;DHT22;12448;45.532;5.290;2023-06-01T05:53:06;17.90;92.20
24326;DHT22;12448;45.532;5.290;2023-06-01T05:55:32;17.90;92.10
24326;DHT22;12448;45.532;5.290;2023-06-01T05:58:10;18.00;92.10
24326;DHT22;12448;45.532;5.290;2023-06-01T06:01:26;18.00;92.00
24326;DHT22;12448;45.532;5.290;2023-06-01T06:07:49;18.00;91.70
24326;DHT22;12448;45.532;5.290;2023-06-01T06:13:51;18.10;91.70
24326;DHT22;12448;45.532;5.290;2023-06-01T06:17:32;18.20;91.80
24326;DHT22;12448;45.532;5.290;2023-06-01T06:20:15;18.20;91.80
24326;DHT22;12448;45.532;5.290;2023-06-01T06:23:17;18.20;91.80
24326;DHT22;12448;45.532;5.290;2023-06-01T06:32:15;18.30;91.70
24326;DHT22;12448;45.532;5.290;2023-06-01T06:39:01;18.40;91.60
24326;DHT22;12448;45.532;5.290;2023-06-01T06:42:10;18.50;91.60
24326;DHT22;12448;45.532;5.290;2023-06-01T06:48:14;18.60;91.70
24326;DHT22;12448;45.532;5.290;2023-06-01T06:51:20;18.60;91.70
24326;DHT22;12448;45.532;5.290;2023-06-01T06:57:45;18.80;91.60
24326;DHT22;12448;45.532;5.290;2023-06-01T07:04:13;18.80;91.30
24326;DHT22;12448;45.532;5.290;2023-06-01T07:07:10;18.90;91.30
24326;DHT22;12448;45.532;5.290;2023-06-01T07:10:37;18.90;91.40
24326;DHT22;12448;45.532;5.290;2023-06-01T07:13:53;19.00;91.40
24326;DHT22;12448;45.532;5.290;2023-06-01T07:26:31;19.20;91.10
24326;DHT22;12448;45.532;5.290;2023-06-01T07:29:00;19.20;91.00
24326;DHT22;12448;45.532;5.290;2023-06-01T07:31:26;19.30;91.10
24326;DHT22;12448;45.532;5.290;2023-06-01T07:33:53;19.30;90.80
24326;DHT22;12448;45.532;5.290;2023-06-01T07:36:21;19.30;90.90
24326;DHT22;12448;45.532;5.290;2023-06-01T07:42:22;19.40;91.00
24326;DHT22;12448;45.532;5.290;2023-06-01T07:52:07;19.60;90.40
24326;DHT22;12448;45.532;5.290;2023-06-01T07:54:40;19.60;90.10
24326;DHT22;12448;45.532;5.290;2023-06-01T07:57:06;19.60;90.30
24326;DHT22;12448;45.532;5.290;2023-06-01T07:59:32;19.70;90.30
24326;DHT22;12448;45.532;5.290;2023-06-01T08:01:58;19.70;90.10
24326;DHT22;12448;45.532;5.290;2023-06-01T08:04:24;19.80;90.10
24326;DHT22;12448;45.532;5.290;2023-06-01T08:07:05;19.80;89.80
24326;DHT22;12448;45.532;5.290;2023-06-01T08:13:48;19.90;89.20
24326;DHT22;12448;45.532;5.290;2023-06-01T08:16:44;20.00;89.40
24326;DHT22;12448;45.532;5.290;2023-06-01T08:19:11;20.00;89.60
24326;DHT22;12448;45.532;5.290;2023-06-01T08:21:45;20.00;89.30
24326;DHT22;12448;45.532;5.290;2023-06-01T08:30:18;20.20;88.10
24326;DHT22;12448;45.532;5.290;2023-06-01T08:32:50;20.20;87.90
24326;DHT22;12448;45.532;5.290;2023-06-01T08:35:18;20.30;87.80
24326;DHT22;12448;45.532;5.290;2023-06-01T08:37:46;20.30;88.00
24326;DHT22;12448;45.532;5.290;2023-06-01T08:40:12;20.40;87.90
24326;DHT22;12448;45.532;5.290;2023-06-01T08:43:05;20.50;87.30
24326;DHT22;12448;45.532;5.290;2023-06-01T08:45:35;20.50;86.70
24326;DHT22;12448;45.532;5.290;2023-06-01T08:48:05;20.50;87.00
24326;DHT22;12448;45.532;5.290;2023-06-01T08:50:36;20.50;86.90
24326;DHT22;12448;45.532;5.290;2023-06-01T08:53:03;20.50;86.50
24326;DHT22;12448;45.532;5.290;2023-06-01T08:55:29;20.50;86.70
24326;DHT22;12448;45.532;5.290;2023-06-01T08:57:58;20.50;86.90
24326;DHT22;12448;45.532;5.290;2023-06-01T09:00:24;20.50;85.20
24326;DHT22;12448;45.532;5.290;2023-06-01T09:02:51;20.60;85.30
24326;DHT22;12448;45.532;5.290;2023-06-01T09:05:16;20.60;84.20
24326;DHT22;12448;45.532;5.290;2023-06-01T09:07:43;20.60;82.00
24326;DHT22;12448;45.532;5.290;2023-06-01T09:10:13;20.60;83.80
24326;DHT22;12448;45.532;5.290;2023-06-01T09:12:39;20.60;84.10
24326;DHT22;12448;45.532;5.290;2023-06-01T09:15:19;20.70;83.80
24326;DHT22;12448;45.532;5.290;2023-06-01T09:17:49;20.70;83.00
24326;DHT22;12448;45.532;5.290;2023-06-01T09:20:23;20.80;83.90
24326;DHT22;12448;45.532;5.290;2023-06-01T09:22:49;20.80;84.40
24326;DHT22;12448;45.532;5.290;2023-06-01T09:25:16;20.90;85.60
24326;DHT22;12448;45.532;5.290;2023-06-01T09:27:49;20.90;85.10
24326;DHT22;12448;45.532;5.290;2023-06-01T09:30:17;20.90;84.80
24326;DHT22;12448;45.532;5.290;2023-06-01T09:32:44;20.90;85.20
24326;DHT22;12448;45.532;5.290;2023-06-01T09:35:13;21.00;85.70
24326;DHT22;12448;45.532;5.290;2023-06-01T09:37:53;21.00;84.80
24326;DHT22;12448;45.532;5.290;2023-06-01T09:40:20;21.10;84.70
24326;DHT22;12448;45.532;5.290;2023-06-01T09:42:46;21.10;84.50
24326;DHT22;12448;45.532;5.290;2023-06-01T09:45:22;21.10;83.00
24326;DHT22;12448;45.532;5.290;2023-06-01T09:47:49;21.10;82.00
24326;DHT22;12448;45.532;5.290;2023-06-01T09:50:35;21.00;82.00
24326;DHT22;12448;45.532;5.290;2023-06-01T09:53:01;21.00;81.10
24326;DHT22;12448;45.532;5.290;2023-06-01T09:55:27;20.90;81.40
24326;DHT22;12448;45.532;5.290;2023-06-01T09:58:16;21.00;81.50
24326;DHT22;12448;45.532;5.290;2023-06-01T10:00:43;21.10;82.20
24326;DHT22;12448;45.532;5.290;2023-06-01T10:03:08;21.10;82.00
24326;DHT22;12448;45.532;5.290;2023-06-01T10:05:35;21.10;80.40
24326;DHT22;12448;45.532;5.290;2023-06-01T10:08:01;21.20;79.80
24326;DHT22;12448;45.532;5.290;2023-06-01T10:10:27;21.20;77.90
24326;DHT22;12448;45.532;5.290;2023-06-01T10:12:53;21.20;80.00
24326;DHT22;12448;45.532;5.290;2023-06-01T10:15:19;21.20;79.90
24326;DHT22;12448;45.532;5.290;2023-06-01T10:17:44;21.30;80.30
24326;DHT22;12448;45.532;5.290;2023-06-01T10:20:13;21.40;80.30
24326;DHT22;12448;45.532;5.290;2023-06-01T10:22:41;21.50;79.50
24326;DHT22;12448;45.532;5.290;2023-06-01T10:31:56;21.60;78.90
24326;DHT22;12448;45.532;5.290;2023-06-01T10:34:45;21.70;78.90
24326;DHT22;12448;45.532;5.290;2023-06-01T10:37:28;21.80;77.70
24326;DHT22;12448;45.532;5.290;2023-06-01T10:46:56;21.90;76.90
24326;DHT22;12448;45.532;5.290;2023-06-01T10:50:17;22.00;76.90
24326;DHT22;12448;45.532;5.290;2023-06-01T11:12:07;22.10;79.20
24326;DHT22;12448;45.532;5.290;2023-06-01T11:14:25;22.20;80.20
24326;DHT22;12448;45.532;5.290;2023-06-01T11:17:26;22.30;78.60
24326;DHT22;12448;45.532;5.290;2023-06-01T11:20:02;22.40;79.90
24326;DHT22;12448;45.532;5.290;2023-06-01T11:22:37;22.40;78.80
24326;DHT22;12448;45.532;5.290;2023-06-01T11:25:05;22.40;79.20
24326;DHT22;12448;45.532;5.290;2023-06-01T11:27:34;22.50;77.20
24326;DHT22;12448;45.532;5.290;2023-06-01T11:30:02;22.50;77.60
24326;DHT22;12448;45.532;5.290;2023-06-01T11:32:27;22.60;76.30
24326;DHT22;12448;45.532;5.290;2023-06-01T11:34:53;22.60;75.30
24326;DHT22;12448;45.532;5.290;2023-06-01T11:37:21;22.70;74.90
24326;DHT22;12448;45.532;5.290;2023-06-01T11:39:47;22.70;76.50
24326;DHT22;12448;45.532;5.290;2023-06-01T11:42:14;22.90;76.60
24326;DHT22;12448;45.532;5.290;2023-06-01T11:44:45;23.00;76.20
24326;DHT22;12448;45.532;5.290;2023-06-01T11:47:12;23.10;75.80
24326;DHT22;12448;45.532;5.290;2023-06-01T11:52:10;23.20;75.00
24326;DHT22;12448;45.532;5.290;2023-06-01T11:54:36;23.10;74.10
24326;DHT22;12448;45.532;5.290;2023-06-01T11:57:03;23.10;74.40
24326;DHT22;12448;45.532;5.290;2023-06-01T11:59:44;23.20;74.90
24326;DHT22;12448;45.532;5.290;2023-06-01T12:02:26;23.30;74.60
24326;DHT22;12448;45.532;5.290;2023-06-01T12:05:06;23.40;75.00
24326;DHT22;12448;45.532;5.290;2023-06-01T12:07:48;23.40;73.50
24326;DHT22;12448;45.532;5.290;2023-06-01T12:10:18;23.40;70.10
24326;DHT22;12448;45.532;5.290;2023-06-01T12:12:45;23.30;72.00
24326;DHT22;12448;45.532;5.290;2023-06-01T12:15:15;23.30;72.50
24326;DHT22;12448;45.532;5.290;2023-06-01T12:17:52;23.30;73.50
24326;DHT22;12448;45.532;5.290;2023-06-01T12:20:35;23.50;73.10
24326;DHT22;12448;45.532;5.290;2023-06-01T12:23:16;23.10;71.50
24326;DHT22;12448;45.532;5.290;2023-06-01T12:25:53;23.60;70.90
24326;DHT22;12448;45.532;5.290;2023-06-01T12:28:20;23.60;70.00
24326;DHT22;12448;45.532;5.290;2023-06-01T12:30:47;23.70;69.90
24326;DHT22;12448;45.532;5.290;2023-06-01T12:33:36;23.80;68.20
24326;DHT22;12448;45.532;5.290;2023-06-01T12:36:03;23.80;68.00
24326;DHT22;12448;45.532;5.290;2023-06-01T12:38:36;23.90;65.80
24326;DHT22;12448;45.532;5.290;2023-06-01T12:41:10;23.80;65.00
24326;DHT22;12448;45.532;5.290;2023-06-01T12:43:37;23.90;66.90
24326;DHT22;12448;45.532;5.290;2023-06-01T12:46:04;23.90;66.60
24326;DHT22;12448;45.532;5.290;2023-06-01T12:48:35;23.90;66.00
24326;DHT22;12448;45.532;5.290;2023-06-01T12:51:02;24.00;65.10
24326;DHT22;12448;45.532;5.290;2023-06-01T12:53:29;24.10;66.10
24326;DHT22;12448;45.532;5.290;2023-06-01T12:55:55;24.10;67.00
24326;DHT22;12448;45.532;5.290;2023-06-01T12:58:21;24.20;66.60
24326;DHT22;12448;45.532;5.290;2023-06-01T13:00:46;24.20;65.40
24326;DHT22;12448;45.532;5.290;2023-06-01T13:03:13;24.30;65.00
24326;DHT22;12448;45.532;5.290;2023-06-01T13:05:41;24.30;65.60
24326;DHT22;12448;45.532;5.290;2023-06-01T13:08:11;24.50;67.00
24326;DHT22;12448;45.532;5.290;2023-06-01T13:10:37;24.70;66.40
24326;DHT22;12448;45.532;5.290;2023-06-01T13:13:02;24.80;65.40
24326;DHT22;12448;45.532;5.290;2023-06-01T13:15:28;24.80;63.50
24326;DHT22;12448;45.532;5.290;2023-06-01T13:17:54;24.80;62.20
24326;DHT22;12448;45.532;5.290;2023-06-01T13:20:21;24.80;62.70
24326;DHT22;12448;45.532;5.290;2023-06-01T13:22:47;24.80;63.00
24326;DHT22;12448;45.532;5.290;2023-06-01T13:25:13;24.70;61.10
24326;DHT22;12448;45.532;5.290;2023-06-01T13:27:39;24.80;61.50
24326;DHT22;12448;45.532;5.290;2023-06-01T13:30:05;24.80;61.10
24326;DHT22;12448;45.532;5.290;2023-06-01T13:32:31;24.80;60.70
24326;DHT22;12448;45.532;5.290;2023-06-01T13:34:57;24.90;61.70
24326;DHT22;12448;45.532;5.290;2023-06-01T13:37:23;24.90;59.50
24326;DHT22;12448;45.532;5.290;2023-06-01T13:39:48;24.90;60.30
24326;DHT22;12448;45.532;5.290;2023-06-01T13:42:16;24.90;61.20
24326;DHT22;12448;45.532;5.290;2023-06-01T13:44:41;24.90;61.00
24326;DHT22;12448;45.532;5.290;2023-06-01T13:47:12;24.90;58.80
24326;DHT22;12448;45.532;5.290;2023-06-01T13:49:41;24.90;59.50
24326;DHT22;12448;45.532;5.290;2023-06-01T13:52:07;24.90;59.90
24326;DHT22;12448;45.532;5.290;2023-06-01T13:54:33;25.00;58.50
24326;DHT22;12448;45.532;5.290;2023-06-01T13:56:59;25.00;58.20
24326;DHT22;12448;45.532;5.290;2023-06-01T13:59:25;25.00;60.50
24326;DHT22;12448;45.532;5.290;2023-06-01T14:01:50;25.10;59.70
24326;DHT22;12448;45.532;5.290;2023-06-01T14:04:16;25.10;59.90
24326;DHT22;12448;45.532;5.290;2023-06-01T14:06:42;25.10;61.00
24326;DHT22;12448;45.532;5.290;2023-06-01T14:09:09;25.20;61.60
24326;DHT22;12448;45.532;5.290;2023-06-01T14:11:34;25.30;59.50
24326;DHT22;12448;45.532;5.290;2023-06-01T14:14:00;25.30;58.20
24326;DHT22;12448;45.532;5.290;2023-06-01T14:16:26;25.40;59.50
24326;DHT22;12448;45.532;5.290;2023-06-01T14:18:51;25.50;61.20
24326;DHT22;12448;45.532;5.290;2023-06-01T14:21:17;25.60;60.50
24326;DHT22;12448;45.532;5.290;2023-06-01T14:23:42;25.60;58.50
24326;DHT22;12448;45.532;5.290;2023-06-01T14:26:10;25.60;57.30
24326;DHT22;12448;45.532;5.290;2023-06-01T14:28:35;25.60;57.60
24326;DHT22;12448;45.532;5.290;2023-06-01T14:31:01;25.60;57.60
24326;DHT22;12448;45.532;5.290;2023-06-01T14:33:26;25.60;59.50
24326;DHT22;12448;45.532;5.290;2023-06-01T14:35:52;25.70;59.00
24326;DHT22;12448;45.532;5.290;2023-06-01T14:38:18;25.70;60.00
24326;DHT22;12448;45.532;5.290;2023-06-01T14:40:43;25.70;59.80
24326;DHT22;12448;45.532;5.290;2023-06-01T14:43:09;25.70;59.30
24326;DHT22;12448;45.532;5.290;2023-06-01T14:45:35;25.70;58.60
24326;DHT22;12448;45.532;5.290;2023-06-01T14:48:00;25.70;60.00
24326;DHT22;12448;45.532;5.290;2023-06-01T14:50:26;25.70;62.50
24326;DHT22;12448;45.532;5.290;2023-06-01T14:52:52;25.60;61.20
24326;DHT22;12448;45.532;5.290;2023-06-01T14:55:23;25.70;61.90
24326;DHT22;12448;45.532;5.290;2023-06-01T14:57:48;25.70;63.50
24326;DHT22;12448;45.532;5.290;2023-06-01T15:00:14;25.70;63.10
24326;DHT22;12448;45.532;5.290;2023-06-01T15:02:40;25.80;63.70
24326;DHT22;12448;45.532;5.290;2023-06-01T15:05:06;25.90;63.30
24326;DHT22;12448;45.532;5.290;2023-06-01T15:07:32;26.00;62.80
24326;DHT22;12448;45.532;5.290;2023-06-01T15:09:58;26.10;61.60
24326;DHT22;12448;45.532;5.290;2023-06-01T15:12:23;26.10;61.90
24326;DHT22;12448;45.532;5.290;2023-06-01T15:14:49;26.20;60.00
24326;DHT22;12448;45.532;5.290;2023-06-01T15:17:16;26.10;57.40
24326;DHT22;12448;45.532;5.290;2023-06-01T15:19:42;26.10;57.90
24326;DHT22;12448;45.532;5.290;2023-06-01T15:22:08;26.10;57.60
24326;DHT22;12448;45.532;5.290;2023-06-01T15:24:33;26.10;57.50
24326;DHT22;12448;45.532;5.290;2023-06-01T15:26:59;26.10;58.80
24326;DHT22;12448;45.532;5.290;2023-06-01T15:29:25;26.10;58.90
24326;DHT22;12448;45.532;5.290;2023-06-01T15:31:50;26.20;59.20
24326;DHT22;12448;45.532;5.290;2023-06-01T15:34:16;26.20;60.00
24326;DHT22;12448;45.532;5.290;2023-06-01T15:36:42;26.20;60.10
24326;DHT22;12448;45.532;5.290;2023-06-01T15:39:07;26.20;59.50
24326;DHT22;12448;45.532;5.290;2023-06-01T15:41:33;26.10;60.40
24326;DHT22;12448;45.532;5.290;2023-06-01T15:43:59;26.20;59.00
24326;DHT22;12448;45.532;5.290;2023-06-01T15:46:25;26.10;59.20
24326;DHT22;12448;45.532;5.290;2023-06-01T15:48:52;26.10;59.50
24326;DHT22;12448;45.532;5.290;2023-06-01T15:51:17;26.10;59.00
24326;DHT22;12448;45.532;5.290;2023-06-01T15:53:43;26.10;59.30
24326;DHT22;12448;45.532;5.290;2023-06-01T15:56:08;26.10;60.00
24326;DHT22;12448;45.532;5.290;2023-06-01T15:58:34;26.10;59.80
24326;DHT22;12448;45.532;5.290;2023-06-01T16:01:00;26.10;59.60
24326;DHT22;12448;45.532;5.290;2023-06-01T16:03:25;26.10;61.50
24326;DHT22;12448;45.532;5.290;2023-06-01T16:05:51;26.00;59.70
24326;DHT22;12448;45.532;5.290;2023-06-01T16:08:17;25.90;61.20
24326;DHT22;12448;45.532;5.290;2023-06-01T16:10:43;25.90;63.00
24326;DHT22;12448;45.532;5.290;2023-06-01T16:13:09;25.90;64.10
24326;DHT22;12448;45.532;5.290;2023-06-01T16:15:35;25.70;65.10
24326;DHT22;12448;45.532;5.290;2023-06-01T16:18:00;25.60;65.80
24326;DHT22;12448;45.532;5.290;2023-06-01T16:20:26;25.30;66.50
24326;DHT22;12448;45.532;5.290;2023-06-01T16:22:52;25.10;67.10
24326;DHT22;12448;45.532;5.290;2023-06-01T16:25:17;25.00;67.90
24326;DHT22;12448;45.532;5.290;2023-06-01T16:27:49;24.80;68.20
24326;DHT22;12448;45.532;5.290;2023-06-01T16:30:16;24.60;68.90
24326;DHT22;12448;45.532;5.290;2023-06-01T16:32:41;24.40;69.40
24326;DHT22;12448;45.532;5.290;2023-06-01T16:35:07;24.30;70.20
24326;DHT22;12448;45.532;5.290;2023-06-01T16:37:34;24.20;70.90
24326;DHT22;12448;45.532;5.290;2023-06-01T16:39:59;24.00;68.50
24326;DHT22;12448;45.532;5.290;2023-06-01T16:42:25;23.70;69.80
24326;DHT22;12448;45.532;5.290;2023-06-01T16:44:50;23.60;70.90
24326;DHT22;12448;45.532;5.290;2023-06-01T16:47:16;23.40;71.60
24326;DHT22;12448;45.532;5.290;2023-06-01T16:49:42;23.40;72.00
24326;DHT22;12448;45.532;5.290;2023-06-01T16:52:07;23.40;73.40
24326;DHT22;12448;45.532;5.290;2023-06-01T16:54:33;23.40;73.90
24326;DHT22;12448;45.532;5.290;2023-06-01T16:56:59;23.50;74.40
24326;DHT22;12448;45.532;5.290;2023-06-01T16:59:26;23.70;74.30
24326;DHT22;12448;45.532;5.290;2023-06-01T17:01:52;23.90;73.90
24326;DHT22;12448;45.532;5.290;2023-06-01T17:04:18;24.10;73.80
24326;DHT22;12448;45.532;5.290;2023-06-01T17:06:43;24.50;73.00
24326;DHT22;12448;45.532;5.290;2023-06-01T17:09:12;24.70;72.40
24326;DHT22;12448;45.532;5.290;2023-06-01T17:11:37;25.00;71.70
24326;DHT22;12448;45.532;5.290;2023-06-01T17:14:03;25.20;70.60
24326;DHT22;12448;45.532;5.290;2023-06-01T17:16:29;25.40;69.60
24326;DHT22;12448;45.532;5.290;2023-06-01T17:18:54;25.60;69.50
24326;DHT22;12448;45.532;5.290;2023-06-01T17:21:20;25.60;68.70
24326;DHT22;12448;45.532;5.290;2023-06-01T17:23:45;25.70;68.60
24326;DHT22;12448;45.532;5.290;2023-06-01T17:26:11;25.80;68.10
24326;DHT22;12448;45.532;5.290;2023-06-01T17:28:37;25.90;66.40
24326;DHT22;12448;45.532;5.290;2023-06-01T17:31:02;25.90;66.80
24326;DHT22;12448;45.532;5.290;2023-06-01T17:33:28;25.90;66.80
24326;DHT22;12448;45.532;5.290;2023-06-01T17:35:54;26.00;66.30
24326;DHT22;12448;45.532;5.290;2023-06-01T17:38:19;26.00;66.10
24326;DHT22;12448;45.532;5.290;2023-06-01T17:40:45;26.00;66.90
24326;DHT22;12448;45.532;5.290;2023-06-01T17:43:11;26.00;67.10
24326;DHT22;12448;45.532;5.290;2023-06-01T17:45:36;26.10;67.20
24326;DHT22;12448;45.532;5.290;2023-06-01T17:48:02;26.10;66.80
24326;DHT22;12448;45.532;5.290;2023-06-01T17:50:28;26.10;66.90
24326;DHT22;12448;45.532;5.290;2023-06-01T17:52:53;26.10;67.20
24326;DHT22;12448;45.532;5.290;2023-06-01T17:55:19;26.10;67.80
24326;DHT22;12448;45.532;5.290;2023-06-01T17:57:45;26.10;67.70
24326;DHT22;12448;45.532;5.290;2023-06-01T18:00:11;26.10;67.70
24326;DHT22;12448;45.532;5.290;2023-06-01T18:02:37;26.20;67.40
24326;DHT22;12448;45.532;5.290;2023-06-01T18:05:02;26.30;67.20